Swansboro, NC (28584)

5:15 PM EDT on March 28, 2017 (GMT -0400)
| | Change Station
Active Advisory: Severe Thunderstorm Warning

Elev -9999 ft 0.00 °N, 0.00 °E | Updated 6 minutes ago

Mostly Cloudy
Mostly Cloudy
°F
Feels Like °F
N
Wind Variable Wind from North
Gusts mph

Today
High -- | Low -- °F
--% Chance of Precip.
Yesterday
High -- | Low -- °F
Precip. -- in
Pressure 29.88 in
Visibility 10.0 miles
Clouds Few 4500 ft
Scattered Clouds 6000 ft
Dew Point Not available.
Humidity Not available.
Rainfall --
Snow Depth Not available.
7:00 AM 7:26 PM
New Moon, 1% visible
METAR KNJM 282057Z AUTO 21010KT 10SM -RA FEW045 SCT060 20/17 A2987 RMK AO2 RAB56 SLP118 P0000 60000 T02000172 58028 $
Pressure 29.88 in
Visibility 10.0 miles
Clouds Few 4500 ft
Scattered Clouds 6000 ft
Dew Point Not available.
Humidity Not available.
Rainfall --
Snow Depth Not available.
7:00 AM 7:26 PM
New Moon, 1% visible
METAR KNJM 282057Z AUTO 21010KT 10SM -RA FEW045 SCT060 20/17 A2987 RMK AO2 RAB56 SLP118 P0000 60000 T02000172 58028 $

Get Your Daily Forecast Email!

Thanks for signing up!

Be on the lookout for a verification email in your inbox.

You'll start receiving severe weather alerts in your inbox..

×

10-Day Weather Forecast

Almanac

Astronomy

Mar. 28, 2017 Rise Set
Actual Time
Civil Twilight
Nautical Twilight
Astronomical Twilight
Moon
Length of Visible Light
Length of Day
Tomorrow will be .
, % of the Moon is Illuminated

Today's Extremes

State Highs State Lows

Community

WunderPhotos

Upload Photos

1,962,540 photos uploaded!

WunderBlog® & News

Nearby

Air Quality

  Air Quality AQ Index Pollutant
Not available.

Snow Depth

Station Depth Elevation

Earthquake Activity

City Distance Mag. Time & Date
Minimum magnitude displayed is 2.5.

Earthquake Activity

City Distance Mag. Time & Date
Minimum magnitude displayed is 2.5.

Coastal Water Temperatures

Place Temperature

Stations

Nearby Weather Stations

Station Location Temp. Windchill Dew Point Humidity Wind Precip. Elev Updated Type
                   

Watches & Warnings

Severe Thunderstorm Warning
Issued: 5:08 PM EDT Mar. 28, 2017 – National Weather Service

... The Severe Thunderstorm Warning for Onslow County is cancelled...

the severe thunderstorm which prompted the warning has moved out of
the warned area. Therefore, the warning has been cancelled.

Lat... Lon 3496 7728 3505 7711 3499 7697 3493 7685
      3481 7699 3480 7711
time... Mot... loc 2107z 298deg 28kt 3495 7713